Time;durP1;ratioP1;P1;durP2;ratioP2;P2;SDS_P1;SDS_P2;PMS_P1;PMS_P2;Temp;Humidity;BMP_temperature;BMP_pressure;BME280_temperature;BME280_humidity;BME280_pressure;Samples;Min_cycle;Max_cycle;Signal;HPM_P1;HPM_P2
2022/03/30 00:00:14;;;;;;;16.05;7.93;;;;;;;;;;4941971;29;20054;-81
2022/03/30 00:02:43;;;;;;;16.42;8.80;;;;;;;;;;4942742;29;20459;-82
2022/03/30 00:05:10;;;;;;;14.52;7.05;;;;;;;;;;4941065;29;20103;-82
2022/03/30 00:07:37;;;;;;;14.02;7.80;;;;;;;;;;4941016;29;20075;-80
2022/03/30 00:10:05;;;;;;;14.55;7.57;;;;;;;;;;4940132;29;20099;-82
2022/03/30 00:12:33;;;;;;;17.90;8.73;;;;;;;;;;4939886;29;20072;-80
2022/03/30 00:15:00;;;;;;;17.92;8.18;;;;;;;;;;4938736;29;20058;-82
2022/03/30 00:17:28;;;;;;;19.00;8.00;;;;;;;;;;4940198;29;20103;-80
2022/03/30 00:19:56;;;;;;;19.63;7.90;;;;;;;;;;4940287;29;20051;-81
2022/03/30 00:22:23;;;;;;;18.63;8.00;;;;;;;;;;4940098;29;20500;-80
2022/03/30 00:24:50;;;;;;;21.60;7.47;;;;;;;;;;4939528;29;20118;-81
2022/03/30 00:27:17;;;;;;;16.75;8.00;;;;;;;;;;4939631;29;20099;-82
2022/03/30 00:29:44;;;;;;;17.35;9.18;;;;;;;;;;4940392;29;20052;-81
2022/03/30 00:32:11;;;;;;;20.00;8.73;;;;;;;;;;4942292;29;20056;-80
2022/03/30 00:34:39;;;;;;;20.67;8.38;;;;;;;;;;4957569;29;20063;-81
2022/03/30 00:37:07;;;;;;;19.00;7.90;;;;;;;;;;4956049;29;20059;-81
2022/03/30 00:39:34;;;;;;;19.05;7.15;;;;;;;;;;4941235;29;20059;-81
2022/03/30 00:42:01;;;;;;;21.38;8.07;;;;;;;;;;4940899;29;20044;-82
2022/03/30 00:44:28;;;;;;;15.13;7.60;;;;;;;;;;4939656;29;20048;-81
2022/03/30 00:46:55;;;;;;;16.85;7.18;;;;;;;;;;4939605;29;20067;-83
2022/03/30 00:49:21;;;;;;;14.75;7.13;;;;;;;;;;4939939;29;20099;-82
2022/03/30 00:51:48;;;;;;;15.82;8.13;;;;;;;;;;4940624;29;20062;-81
2022/03/30 00:54:16;;;;;;;17.45;8.00;;;;;;;;;;4944013;29;20400;-82
2022/03/30 00:56:44;;;;;;;18.02;8.88;;;;;;;;;;4941436;29;20498;-80
2022/03/30 00:59:11;;;;;;;17.10;8.13;;;;;;;;;;4942145;29;20051;-82
2022/03/30 01:01:38;;;;;;;20.08;8.43;;;;;;;;;;4944768;29;20055;-81
2022/03/30 01:04:05;;;;;;;18.77;8.05;;;;;;;;;;4944074;29;20084;-80
2022/03/30 01:06:32;;;;;;;21.65;8.30;;;;;;;;;;4946782;29;20074;-81
2022/03/30 01:08:59;;;;;;;20.10;8.75;;;;;;;;;;4942643;29;20048;-80
2022/03/30 01:11:28;;;;;;;21.38;9.70;;;;;;;;;;4942596;29;20114;-81
2022/03/30 01:13:58;;;;;;;20.45;8.68;;;;;;;;;;4942462;29;20419;-80
2022/03/30 01:16:25;;;;;;;18.25;9.00;;;;;;;;;;4943720;29;20047;-80
2022/03/30 01:19:03;;;;;;;18.02;8.68;;;;;;;;;;4944114;29;20083;-81
2022/03/30 01:21:31;;;;;;;16.27;8.85;;;;;;;;;;4946554;29;20131;-80
2022/03/30 01:23:58;;;;;;;18.70;8.32;;;;;;;;;;4947155;29;20044;-79
2022/03/30 01:26:25;;;;;;;17.45;9.07;;;;;;;;;;4945419;29;20403;-81
2022/03/30 01:28:52;;;;;;;15.70;9.10;;;;;;;;;;4945540;29;20087;-79
2022/03/30 01:34:03;;;;;;;19.92;8.93;;;;;;;;;;4942422;29;20062;-79
2022/03/30 01:36:37;;;;;;;17.77;8.95;;;;;;;;;;4942342;29;20187;-79
2022/03/30 01:39:03;;;;;;;21.83;9.15;;;;;;;;;;4942562;29;20079;-80
2022/03/30 01:41:30;;;;;;;20.13;9.77;;;;;;;;;;4942138;29;20074;-80
2022/03/30 01:43:58;;;;;;;26.95;10.32;;;;;;;;;;4941908;29;20055;-82
2022/03/30 01:46:25;;;;;;;18.90;9.57;;;;;;;;;;4942076;29;20048;-80
2022/03/30 01:48:52;;;;;;;18.95;8.43;;;;;;;;;;4941664;29;20047;-81
2022/03/30 01:51:19;;;;;;;21.85;9.13;;;;;;;;;;4941045;29;20047;-81
2022/03/30 01:53:49;;;;;;;22.15;9.13;;;;;;;;;;4941313;29;20047;-81
2022/03/30 01:56:22;;;;;;;;;;;;;;;;;;4942165;29;20048;-82
2022/03/30 01:58:48;;;;;;;17.42;8.90;;;;;;;;;;4941577;29;20289;-81
2022/03/30 02:01:15;;;;;;;20.23;8.57;;;;;;;;;;4942659;29;20102;-80
2022/03/30 02:03:42;;;;;;;22.48;9.38;;;;;;;;;;4944877;29;20076;-79
2022/03/30 02:06:12;;;;;;;17.17;9.05;;;;;;;;;;4951014;29;20075;-78
2022/03/30 02:08:39;;;;;;;16.25;8.00;;;;;;;;;;4947272;29;20047;-80
2022/03/30 02:11:07;;;;;;;18.05;9.27;;;;;;;;;;4944420;29;20075;-82
2022/03/30 02:13:34;;;;;;;21.67;8.80;;;;;;;;;;4941908;29;20055;-79
2022/03/30 02:16:01;;;;;;;20.17;9.88;;;;;;;;;;4945180;29;20059;-79
2022/03/30 02:18:30;;;;;;;17.33;7.45;;;;;;;;;;4941058;29;20423;-80
2022/03/30 02:20:57;;;;;;;19.60;9.70;;;;;;;;;;4940399;29;20044;-80
2022/03/30 02:23:24;;;;;;;18.25;7.63;;;;;;;;;;4940501;29;20067;-80
2022/03/30 02:25:51;;;;;;;16.70;8.00;;;;;;;;;;4940843;29;20052;-80
2022/03/30 02:28:19;;;;;;;20.67;9.05;;;;;;;;;;4941686;29;20474;-82
2022/03/30 02:30:49;;;;;;;20.08;9.68;;;;;;;;;;4942755;29;20047;-80
2022/03/30 02:33:16;;;;;;;19.52;9.48;;;;;;;;;;4947496;29;20048;-79
2022/03/30 02:35:43;;;;;;;24.63;8.35;;;;;;;;;;4949449;29;20051;-81
2022/03/30 02:38:10;;;;;;;22.83;7.97;;;;;;;;;;4947270;29;20052;-80
2022/03/30 02:40:36;;;;;;;20.92;9.05;;;;;;;;;;4946430;29;20112;-79
2022/03/30 02:43:03;;;;;;;18.45;8.15;;;;;;;;;;4945061;29;20459;-80
2022/03/30 02:45:32;;;;;;;20.70;7.68;;;;;;;;;;4946690;29;20050;-80
2022/03/30 02:50:44;;;;;;;18.95;7.97;;;;;;;;;;4947779;29;20061;-80
2022/03/30 02:53:11;;;;;;;18.33;7.05;;;;;;;;;;4946028;28;20056;-79
2022/03/30 02:55:38;;;;;;;17.23;7.40;;;;;;;;;;4941613;29;20052;-81
2022/03/30 02:58:05;;;;;;;17.33;8.00;;;;;;;;;;4941023;29;20048;-80
2022/03/30 03:00:34;;;;;;;21.70;8.15;;;;;;;;;;4941160;29;20051;-81
2022/03/30 03:03:01;;;;;;;16.35;6.78;;;;;;;;;;4940095;29;20079;-82
2022/03/30 03:05:32;;;;;;;18.40;7.32;;;;;;;;;;4940487;29;20047;-80
2022/03/30 03:07:59;;;;;;;16.65;7.38;;;;;;;;;;4939848;29;20055;-80
2022/03/30 03:10:26;;;;;;;18.30;7.80;;;;;;;;;;4940679;29;20146;-80
2022/03/30 03:12:53;;;;;;;18.67;7.32;;;;;;;;;;4939719;29;20131;-81
2022/03/30 03:15:20;;;;;;;22.63;9.27;;;;;;;;;;4939986;29;20392;-81
2022/03/30 03:17:48;;;;;;;15.55;7.95;;;;;;;;;;4939408;29;20099;-82
2022/03/30 03:20:15;;;;;;;19.50;7.40;;;;;;;;;;4939718;29;20043;-80
2022/03/30 03:22:43;;;;;;;16.90;7.20;;;;;;;;;;4938790;29;20126;-81
2022/03/30 03:25:11;;;;;;;16.45;7.47;;;;;;;;;;4939581;29;20048;-80
2022/03/30 03:27:39;;;;;;;19.70;7.95;;;;;;;;;;4939225;29;20047;-81
2022/03/30 03:30:07;;;;;;;18.70;8.13;;;;;;;;;;4939211;29;20052;-81
2022/03/30 03:32:34;;;;;;;23.40;8.82;;;;;;;;;;4939063;29;20055;-80
2022/03/30 03:35:02;;;;;;;19.90;8.35;;;;;;;;;;4939807;29;20099;-82
2022/03/30 03:37:29;;;;;;;18.45;8.60;;;;;;;;;;4939736;29;20053;-81
2022/03/30 03:39:55;;;;;;;22.13;8.63;;;;;;;;;;4939680;29;20118;-81
2022/03/30 03:42:22;;;;;;;20.35;8.07;;;;;;;;;;4940013;29;20055;-80
2022/03/30 03:44:49;;;;;;;21.75;9.02;;;;;;;;;;4953585;29;20336;-82
2022/03/30 03:47:15;;;;;;;21.48;8.30;;;;;;;;;;4959924;28;20040;-82
2022/03/30 03:49:42;;;;;;;21.67;7.43;;;;;;;;;;4952296;28;20047;-82
2022/03/30 03:52:10;;;;;;;16.20;9.00;;;;;;;;;;4944359;29;20044;-81
2022/03/30 03:54:37;;;;;;;24.08;8.20;;;;;;;;;;4940877;29;20055;-79
2022/03/30 03:57:04;;;;;;;24.83;8.38;;;;;;;;;;4938983;29;20075;-80
2022/03/30 03:59:31;;;;;;;16.70;7.00;;;;;;;;;;4939591;29;20052;-80
2022/03/30 04:01:58;;;;;;;21.13;8.55;;;;;;;;;;4938644;29;20083;-82
2022/03/30 04:04:24;;;;;;;16.42;9.23;;;;;;;;;;4938281;29;20111;-81
2022/03/30 04:06:51;;;;;;;22.55;8.65;;;;;;;;;;4937693;29;20051;-82
2022/03/30 04:09:19;;;;;;;23.05;8.68;;;;;;;;;;4938464;29;20079;-81
2022/03/30 04:11:46;;;;;;;19.95;8.43;;;;;;;;;;4938866;29;20056;-80
2022/03/30 04:14:15;;;;;;;20.88;9.30;;;;;;;;;;4938680;29;20052;-80
2022/03/30 04:16:42;;;;;;;19.23;7.90;;;;;;;;;;4937776;29;20542;-80
2022/03/30 04:19:09;;;;;;;16.85;8.13;;;;;;;;;;4937887;29;20491;-79
2022/03/30 04:21:36;;;;;;;20.27;7.90;;;;;;;;;;4938872;29;20158;-80
2022/03/30 04:24:03;;;;;;;17.05;7.78;;;;;;;;;;4938712;29;20114;-80
2022/03/30 04:26:31;;;;;;;20.67;8.40;;;;;;;;;;4938221;29;20075;-81
2022/03/30 04:28:58;;;;;;;20.42;9.40;;;;;;;;;;4940340;29;20047;-81
2022/03/30 04:31:25;;;;;;;21.30;8.02;;;;;;;;;;4938883;29;20392;-81
2022/03/30 04:33:53;;;;;;;18.60;7.70;;;;;;;;;;4938526;29;20575;-81
2022/03/30 04:36:21;;;;;;;21.02;8.30;;;;;;;;;;4938766;29;20631;-82
2022/03/30 04:38:47;;;;;;;22.23;9.77;;;;;;;;;;4940470;29;20126;-81
2022/03/30 04:41:14;;;;;;;25.35;9.43;;;;;;;;;;4939411;29;20118;-79
2022/03/30 04:43:42;;;;;;;23.13;8.57;;;;;;;;;;4939552;29;20290;-80
2022/03/30 04:46:09;;;;;;;16.67;7.85;;;;;;;;;;4940433;29;20142;-82
2022/03/30 04:48:36;;;;;;;19.23;8.32;;;;;;;;;;4940511;29;20048;-81
2022/03/30 04:51:04;;;;;;;20.92;8.32;;;;;;;;;;4939831;29;20055;-79
2022/03/30 04:53:30;;;;;;;20.85;8.77;;;;;;;;;;4939518;29;20416;-81
2022/03/30 04:55:57;;;;;;;26.85;9.20;;;;;;;;;;4938228;29;20499;-80
2022/03/30 04:58:24;;;;;;;17.10;8.65;;;;;;;;;;4938087;29;20052;-82
2022/03/30 05:00:53;;;;;;;21.77;7.72;;;;;;;;;;4940714;29;20048;-81
2022/03/30 05:03:20;;;;;;;21.02;7.80;;;;;;;;;;4942277;29;20044;-80
2022/03/30 05:05:46;;;;;;;19.80;8.70;;;;;;;;;;4943718;29;20052;-81
2022/03/30 05:08:13;;;;;;;20.85;9.20;;;;;;;;;;4940453;29;20515;-81
2022/03/30 05:10:40;;;;;;;26.33;9.55;;;;;;;;;;4940690;29;20051;-81
2022/03/30 05:13:07;;;;;;;21.67;9.43;;;;;;;;;;4939620;29;20051;-81
2022/03/30 05:15:33;;;;;;;22.65;10.32;;;;;;;;;;4938924;29;20062;-80
2022/03/30 05:18:01;;;;;;;22.25;10.98;;;;;;;;;;4940329;29;20051;-79
2022/03/30 05:20:28;;;;;;;22.63;8.82;;;;;;;;;;4942949;29;20566;-81
2022/03/30 05:22:55;;;;;;;21.42;9.75;;;;;;;;;;4940218;29;20085;-81
2022/03/30 05:25:23;;;;;;;20.42;9.55;;;;;;;;;;4938988;29;20084;-81
2022/03/30 05:27:50;;;;;;;23.23;10.60;;;;;;;;;;4938619;29;20134;-81
2022/03/30 05:30:16;;;;;;;16.65;9.85;;;;;;;;;;4938127;29;20052;-80
2022/03/30 05:32:45;;;;;;;20.88;10.77;;;;;;;;;;4939579;29;20055;-81
2022/03/30 05:35:15;;;;;;;27.38;11.40;;;;;;;;;;4947554;29;20075;-81
2022/03/30 05:37:42;;;;;;;25.25;10.90;;;;;;;;;;4943072;29;20052;-81
2022/03/30 05:40:10;;;;;;;20.58;10.68;;;;;;;;;;4941617;29;20056;-79
2022/03/30 05:42:37;;;;;;;28.77;11.52;;;;;;;;;;4940178;29;20048;-83
2022/03/30 05:45:04;;;;;;;25.48;10.25;;;;;;;;;;4930610;29;20059;-82
2022/03/30 05:47:31;;;;;;;27.30;11.55;;;;;;;;;;4921701;29;20120;-81
2022/03/30 05:49:58;;;;;;;21.10;10.52;;;;;;;;;;4932713;29;20053;-81
2022/03/30 05:52:26;;;;;;;23.33;9.10;;;;;;;;;;4922767;29;20059;-81
2022/03/30 05:54:53;;;;;;;18.05;8.15;;;;;;;;;;4923491;29;20048;-81
2022/03/30 05:57:21;;;;;;;16.10;7.75;;;;;;;;;;4927283;29;20120;-82
2022/03/30 05:59:49;;;;;;;22.58;8.00;;;;;;;;;;4929479;29;20052;-81
2022/03/30 06:02:16;;;;;;;21.63;7.60;;;;;;;;;;4922954;29;20059;-83
2022/03/30 06:04:45;;;;;;;27.38;9.98;;;;;;;;;;4924152;29;20468;-82
2022/03/30 06:07:12;;;;;;;16.77;7.75;;;;;;;;;;4923458;29;20052;-80
2022/03/30 06:09:40;;;;;;;19.60;7.88;;;;;;;;;;4922766;29;20531;-79
2022/03/30 06:12:07;;;;;;;15.98;7.68;;;;;;;;;;4922296;29;20049;-81
2022/03/30 06:14:34;;;;;;;23.63;7.93;;;;;;;;;;4922936;29;20084;-81
2022/03/30 06:17:04;;;;;;;26.08;9.60;;;;;;;;;;4922504;29;20076;-81
2022/03/30 06:19:31;;;;;;;20.17;7.32;;;;;;;;;;4923012;29;20048;-80
2022/03/30 06:21:58;;;;;;;16.38;7.25;;;;;;;;;;4923636;29;20052;-81
2022/03/30 06:24:25;;;;;;;19.98;7.00;;;;;;;;;;4924701;29;20135;-81
2022/03/30 06:26:54;;;;;;;18.90;7.80;;;;;;;;;;4923956;29;20416;-80
2022/03/30 06:29:20;;;;;;;20.83;7.25;;;;;;;;;;4924423;29;20183;-81
2022/03/30 06:31:47;;;;;;;21.17;8.52;;;;;;;;;;4924273;29;20156;-80
2022/03/30 06:34:14;;;;;;;18.90;7.60;;;;;;;;;;4924513;29;20116;-81
2022/03/30 06:36:41;;;;;;;16.88;6.82;;;;;;;;;;4922867;29;20072;-81
2022/03/30 06:39:08;;;;;;;19.10;8.25;;;;;;;;;;4923115;29;20083;-80
2022/03/30 06:41:34;;;;;;;20.30;8.35;;;;;;;;;;4924422;29;20088;-81
2022/03/30 06:44:03;;;;;;;17.25;6.93;;;;;;;;;;4924001;29;20049;-81
2022/03/30 06:46:33;;;;;;;24.33;8.23;;;;;;;;;;4924422;29;20693;-80
2022/03/30 06:49:01;;;;;;;19.30;7.43;;;;;;;;;;4927313;29;20599;-80
2022/03/30 06:51:27;;;;;;;21.13;8.38;;;;;;;;;;4925006;29;20055;-82
2022/03/30 06:53:54;;;;;;;18.40;7.10;;;;;;;;;;4924959;29;20094;-81
2022/03/30 06:56:21;;;;;;;20.45;10.32;;;;;;;;;;4922091;29;20464;-81
2022/03/30 06:58:50;;;;;;;27.52;8.30;;;;;;;;;;4923319;29;20048;-81
2022/03/30 07:01:18;;;;;;;28.90;8.35;;;;;;;;;;4924758;29;20052;-80
2022/03/30 07:03:45;;;;;;;21.85;8.05;;;;;;;;;;4925515;29;20052;-80
2022/03/30 07:06:11;;;;;;;24.10;7.45;;;;;;;;;;4925329;29;20052;-81
2022/03/30 07:11:23;;;;;;;23.00;6.97;;;;;;;;;;4923358;29;20534;-81
2022/03/30 07:13:50;;;;;;;22.52;8.23;;;;;;;;;;4924144;29;20052;-81
2022/03/30 07:16:19;;;;;;;27.95;7.85;;;;;;;;;;4923936;29;20048;-79
2022/03/30 07:18:45;;;;;;;22.42;7.57;;;;;;;;;;4928122;29;20044;-80
2022/03/30 07:21:12;;;;;;;19.05;7.32;;;;;;;;;;4923554;29;20100;-82
2022/03/30 07:23:39;;;;;;;16.95;7.50;;;;;;;;;;4924199;29;20052;-81
2022/03/30 07:26:06;;;;;;;20.77;7.82;;;;;;;;;;4925435;29;20472;-81
2022/03/30 07:28:35;;;;;;;21.15;6.43;;;;;;;;;;4923878;29;20048;-82
2022/03/30 07:31:02;;;;;;;20.35;8.70;;;;;;;;;;4923733;29;20115;-82
2022/03/30 07:33:32;;;;;;;16.75;5.78;;;;;;;;;;4923074;29;20636;-82
2022/03/30 07:35:59;;;;;;;20.83;6.97;;;;;;;;;;4926609;29;20040;-81
2022/03/30 07:38:26;;;;;;;16.67;6.15;;;;;;;;;;4922515;29;20055;-81
2022/03/30 07:40:54;;;;;;;14.38;6.70;;;;;;;;;;4925207;29;20052;-82
2022/03/30 07:43:21;;;;;;;19.88;7.35;;;;;;;;;;4926057;29;20048;-82
2022/03/30 07:45:48;;;;;;;24.58;6.63;;;;;;;;;;4937771;29;20056;-80
2022/03/30 07:48:14;;;;;;;17.35;7.15;;;;;;;;;;4943762;29;20127;-82
2022/03/30 07:50:42;;;;;;;19.10;6.45;;;;;;;;;;4943482;29;20051;-81
2022/03/30 07:53:09;;;;;;;22.77;7.95;;;;;;;;;;4940948;29;20452;-80
2022/03/30 07:55:38;;;;;;;16.27;6.25;;;;;;;;;;4925869;29;20052;-78
2022/03/30 07:58:05;;;;;;;26.63;7.43;;;;;;;;;;4927863;29;20063;-79
2022/03/30 08:00:32;;;;;;;23.73;7.38;;;;;;;;;;4931000;29;20052;-80
2022/03/30 08:03:00;;;;;;;15.80;6.35;;;;;;;;;;4932562;29;20072;-79
2022/03/30 08:05:26;;;;;;;20.15;7.28;;;;;;;;;;4924525;29;20055;-81
2022/03/30 08:07:55;;;;;;;25.70;7.38;;;;;;;;;;4922364;29;20441;-81
2022/03/30 08:10:22;;;;;;;23.85;8.02;;;;;;;;;;4922255;29;20048;-79
2022/03/30 08:12:49;;;;;;;19.15;7.22;;;;;;;;;;4916278;29;20048;-79
2022/03/30 08:15:16;;;;;;;17.63;6.40;;;;;;;;;;4917279;29;20054;-82
2022/03/30 08:17:44;;;;;;;19.40;6.72;;;;;;;;;;4918409;29;20051;-79
2022/03/30 08:22:25;;;;;;;19.15;6.55;;;;;;;;;;4922498;29;20044;-82
2022/03/30 08:23:00;;;;;;;21.83;6.38;;;;;;;;;;4921900;29;20483;-83
2022/03/30 08:25:27;;;;;;;21.65;7.63;;;;;;;;;;4922605;29;20054;-84
2022/03/30 08:27:54;;;;;;;22.77;7.97;;;;;;;;;;4921004;29;20068;-82
2022/03/30 08:30:22;;;;;;;20.65;7.55;;;;;;;;;;4918836;29;20098;-80
2022/03/30 08:32:48;;;;;;;23.38;6.40;;;;;;;;;;4918053;29;20073;-80
2022/03/30 08:35:15;;;;;;;20.45;6.63;;;;;;;;;;4919006;29;20055;-80
2022/03/30 08:37:42;;;;;;;19.23;7.78;;;;;;;;;;4918903;29;20055;-82
2022/03/30 08:40:11;;;;;;;21.17;7.70;;;;;;;;;;4919824;29;20582;-81
2022/03/30 08:42:41;;;;;;;20.20;6.30;;;;;;;;;;4920606;29;20052;-80
2022/03/30 08:45:10;;;;;;;19.58;6.05;;;;;;;;;;4916605;29;20052;-80
2022/03/30 08:47:37;;;;;;;21.02;6.65;;;;;;;;;;4916950;29;20052;-81
2022/03/30 08:50:06;;;;;;;19.15;6.45;;;;;;;;;;4917829;29;20435;-81
2022/03/30 08:52:33;;;;;;;19.45;6.03;;;;;;;;;;4922181;29;20059;-81
2022/03/30 08:55:00;;;;;;;17.05;7.20;;;;;;;;;;4917891;29;20094;-80
2022/03/30 08:57:29;;;;;;;21.48;6.15;;;;;;;;;;4918524;29;20048;-80
2022/03/30 09:00:02;;;;;;;16.23;5.88;;;;;;;;;;4921736;29;20076;-80
2022/03/30 09:02:39;;;;;;;19.00;7.75;;;;;;;;;;4937269;29;20040;-80
2022/03/30 09:05:15;;;;;;;17.80;7.32;;;;;;;;;;4938557;29;20071;-80
2022/03/30 09:07:44;;;;;;;21.52;6.88;;;;;;;;;;4938119;29;20040;-79
2022/03/30 09:10:15;;;;;;;19.00;6.97;;;;;;;;;;4937839;29;20068;-79
2022/03/30 09:12:45;;;;;;;20.55;6.95;;;;;;;;;;4935639;29;20044;-81
2022/03/30 09:15:12;;;;;;;18.88;6.20;;;;;;;;;;4918763;29;20048;-81
2022/03/30 09:17:40;;;;;;;21.98;7.78;;;;;;;;;;4917733;29;20048;-80
2022/03/30 09:20:12;;;;;;;20.13;6.80;;;;;;;;;;4918164;29;20052;-80
2022/03/30 09:22:43;;;;;;;16.50;6.82;;;;;;;;;;4920614;29;20076;-80
2022/03/30 09:25:11;;;;;;;23.20;7.68;;;;;;;;;;4925643;29;20060;-81
2022/03/30 09:27:41;;;;;;;21.00;6.93;;;;;;;;;;4927559;29;20131;-80
2022/03/30 09:30:14;;;;;;;19.40;7.53;;;;;;;;;;4927380;29;20059;-80
2022/03/30 09:32:43;;;;;;;18.00;6.80;;;;;;;;;;4927454;29;20552;-79
2022/03/30 09:35:20;;;;;;;15.98;6.68;;;;;;;;;;4928179;29;20048;-80
2022/03/30 09:38:02;;;;;;;21.92;8.15;;;;;;;;;;4930697;29;20044;-81
2022/03/30 09:40:41;;;;;;;17.80;8.65;;;;;;;;;;4941102;29;20086;-81
2022/03/30 09:43:20;;;;;;;18.08;7.60;;;;;;;;;;4941606;29;20077;-81
2022/03/30 09:45:50;;;;;;;17.52;6.28;;;;;;;;;;4941145;29;20119;-81
2022/03/30 09:48:20;;;;;;;20.92;6.65;;;;;;;;;;4940069;29;20115;-81
2022/03/30 09:50:50;;;;;;;24.50;7.35;;;;;;;;;;4941056;29;20086;-80
2022/03/30 09:53:19;;;;;;;29.65;7.93;;;;;;;;;;4941729;29;20112;-80
2022/03/30 09:56:08;;;;;;;20.63;6.95;;;;;;;;;;4940481;29;20052;-80
2022/03/30 09:58:37;;;;;;;17.27;6.10;;;;;;;;;;4938828;29;20118;-80
2022/03/30 10:01:13;;;;;;;19.77;8.15;;;;;;;;;;4940489;29;20052;-79
2022/03/30 10:03:43;;;;;;;15.00;6.30;;;;;;;;;;4941465;29;20055;-80
2022/03/30 10:06:12;;;;;;;18.88;7.38;;;;;;;;;;4939393;29;20040;-81
2022/03/30 10:08:41;;;;;;;16.65;6.50;;;;;;;;;;4941162;29;20051;-81
2022/03/30 10:11:09;;;;;;;19.33;7.07;;;;;;;;;;4940946;29;20051;-80
2022/03/30 10:13:37;;;;;;;16.35;6.97;;;;;;;;;;4941776;29;20083;-80
2022/03/30 10:16:06;;;;;;;18.38;6.93;;;;;;;;;;4940401;29;20052;-80
2022/03/30 10:18:34;;;;;;;17.90;7.38;;;;;;;;;;4941945;29;20044;-81
2022/03/30 10:21:11;;;;;;;14.80;7.63;;;;;;;;;;4940233;29;20098;-79
2022/03/30 10:23:52;;;;;;;15.75;6.88;;;;;;;;;;4943008;29;20052;-80
2022/03/30 10:26:31;;;;;;;17.50;6.90;;;;;;;;;;4940597;29;20089;-79
2022/03/30 10:29:01;;;;;;;18.50;6.45;;;;;;;;;;4940097;29;20044;-79
2022/03/30 10:31:30;;;;;;;17.33;6.53;;;;;;;;;;4940827;29;20044;-80
2022/03/30 10:33:57;;;;;;;18.25;6.13;;;;;;;;;;4940479;29;20106;-78
2022/03/30 10:36:26;;;;;;;17.40;6.15;;;;;;;;;;4939291;29;20052;-80
2022/03/30 10:39:27;;;;;;;19.20;6.82;;;;;;;;;;4940483;29;20051;-80
2022/03/30 10:41:55;;;;;;;16.25;6.43;;;;;;;;;;4940738;29;20052;-80
2022/03/30 10:44:41;;;;;;;19.77;7.15;;;;;;;;;;4940317;29;20044;-80
2022/03/30 10:47:11;;;;;;;18.85;7.70;;;;;;;;;;4924793;29;20468;-80
2022/03/30 10:49:43;;;;;;;21.10;6.18;;;;;;;;;;4921953;29;20072;-80
2022/03/30 10:52:35;;;;;;;17.20;6.07;;;;;;;;;;4919538;29;20084;-80
2022/03/30 10:55:41;;;;;;;22.83;8.88;;;;;;;;;;4901344;29;20080;-82
2022/03/30 10:58:16;;;;;;;18.02;7.65;;;;;;;;;;4904069;29;20048;-81
2022/03/30 11:00:43;;;;;;;15.77;6.40;;;;;;;;;;4926515;29;20048;-81
2022/03/30 11:03:13;;;;;;;13.82;5.63;;;;;;;;;;4929841;29;20052;-81
2022/03/30 11:05:43;;;;;;;17.92;6.70;;;;;;;;;;4925451;29;20087;-80
2022/03/30 11:08:45;;;;;;;17.10;6.35;;;;;;;;;;4923054;29;20059;-80
2022/03/30 11:11:22;;;;;;;16.98;7.20;;;;;;;;;;4923176;29;20076;-80
2022/03/30 11:13:49;;;;;;;23.17;7.22;;;;;;;;;;4923577;29;20052;-79
2022/03/30 11:16:16;;;;;;;16.40;6.65;;;;;;;;;;4923198;29;20040;-80
2022/03/30 11:19:05;;;;;;;17.23;6.57;;;;;;;;;;4924486;29;20052;-81
2022/03/30 11:21:32;;;;;;;16.60;5.82;;;;;;;;;;4912130;29;20048;-80
2022/03/30 11:24:21;;;;;;;14.13;6.60;;;;;;;;;;4924698;29;20048;-81
2022/03/30 11:27:22;;;;;;;15.90;5.60;;;;;;;;;;4921141;29;20052;-79
2022/03/30 11:30:16;;;;;;;15.35;6.95;;;;;;;;;;4923859;29;20048;-82
2022/03/30 11:32:54;;;;;;;20.88;7.03;;;;;;;;;;4922772;29;20052;-81
2022/03/30 11:35:24;;;;;;;21.15;8.25;;;;;;;;;;4923292;29;20048;-81
2022/03/30 11:38:04;;;;;;;16.17;6.40;;;;;;;;;;4924523;29;20052;-83
2022/03/30 11:40:34;;;;;;;19.37;6.60;;;;;;;;;;4924347;29;20055;-83
2022/03/30 11:43:01;;;;;;;21.45;7.25;;;;;;;;;;4943413;23;20047;-85
2022/03/30 11:45:30;;;;;;;23.58;7.32;;;;;;;;;;4946036;29;20043;-86
2022/03/30 11:48:00;;;;;;;22.50;7.82;;;;;;;;;;4948225;29;20095;-85
2022/03/30 11:50:30;;;;;;;20.17;6.93;;;;;;;;;;4946939;29;20048;-85
2022/03/30 11:52:59;;;;;;;21.55;7.75;;;;;;;;;;4942007;29;20048;-84
2022/03/30 11:55:27;;;;;;;20.00;7.28;;;;;;;;;;4925397;29;20055;-84
2022/03/30 11:57:54;;;;;;;16.67;6.53;;;;;;;;;;4927095;29;20142;-86
2022/03/30 12:00:24;;;;;;;21.92;8.00;;;;;;;;;;4928945;29;20044;-87
2022/03/30 12:02:51;;;;;;;15.68;7.13;;;;;;;;;;4928161;29;20059;-85
2022/03/30 12:05:18;;;;;;;21.63;7.90;;;;;;;;;;4927458;29;20056;-85
2022/03/30 12:07:53;;;;;;;24.42;8.23;;;;;;;;;;4926298;29;20444;-84
2022/03/30 12:10:19;;;;;;;22.10;9.63;;;;;;;;;;4924194;29;20539;-82
2022/03/30 12:12:46;;;;;;;21.10;7.82;;;;;;;;;;4924694;29;20064;-84
2022/03/30 12:15:17;;;;;;;17.95;7.95;;;;;;;;;;4927840;29;20080;-83
2022/03/30 12:17:49;;;;;;;21.48;7.88;;;;;;;;;;4931887;29;20067;-81
2022/03/30 12:20:23;;;;;;;18.27;8.75;;;;;;;;;;4932042;29;20048;-82
2022/03/30 12:22:58;;;;;;;22.55;8.30;;;;;;;;;;4932688;29;20048;-80
2022/03/30 12:25:27;;;;;;;20.98;7.78;;;;;;;;;;4931780;29;20048;-80
2022/03/30 12:27:54;;;;;;;19.83;8.15;;;;;;;;;;4931677;29;20079;-80
2022/03/30 12:30:21;;;;;;;20.58;7.93;;;;;;;;;;4930987;29;20080;-80
2022/03/30 12:32:48;;;;;;;25.58;8.32;;;;;;;;;;4929344;29;20044;-82
2022/03/30 12:35:17;;;;;;;20.52;8.50;;;;;;;;;;4929448;29;20072;-83
2022/03/30 12:37:46;;;;;;;21.05;9.57;;;;;;;;;;4929435;29;20052;-83
2022/03/30 12:40:17;;;;;;;20.83;8.43;;;;;;;;;;4926734;29;20055;-82
2022/03/30 12:42:44;;;;;;;16.73;8.55;;;;;;;;;;4926802;29;20499;-81
2022/03/30 12:45:14;;;;;;;21.58;9.07;;;;;;;;;;4924672;29;20651;-81
2022/03/30 12:47:47;;;;;;;21.93;9.77;;;;;;;;;;4922890;29;20127;-82
2022/03/30 12:50:18;;;;;;;19.85;9.25;;;;;;;;;;4922918;29;20048;-85
2022/03/30 12:52:48;;;;;;;21.90;9.50;;;;;;;;;;4924497;29;20084;-83
2022/03/30 12:55:19;;;;;;;19.15;9.73;;;;;;;;;;4926381;29;20060;-83
2022/03/30 12:57:55;;;;;;;20.65;10.18;;;;;;;;;;4931444;29;20321;-84
2022/03/30 13:00:25;;;;;;;20.95;10.38;;;;;;;;;;4933197;29;20050;-83
2022/03/30 13:03:07;;;;;;;21.07;10.07;;;;;;;;;;4934472;29;20316;-83
2022/03/30 13:05:34;;;;;;;22.13;10.52;;;;;;;;;;4934596;29;20048;-83
2022/03/30 13:08:08;;;;;;;23.80;12.23;;;;;;;;;;4931490;29;20055;-83
2022/03/30 13:10:52;;;;;;;24.58;11.20;;;;;;;;;;4927985;29;20048;-84
2022/03/30 13:13:21;;;;;;;18.92;10.25;;;;;;;;;;4926211;29;20044;-83
2022/03/30 13:15:48;;;;;;;22.30;10.95;;;;;;;;;;4926884;29;20052;-83
2022/03/30 13:18:18;;;;;;;23.13;11.18;;;;;;;;;;4927153;29;20085;-83
2022/03/30 13:20:58;;;;;;;22.70;11.70;;;;;;;;;;4928023;29;20056;-83
2022/03/30 13:23:37;;;;;;;24.50;11.27;;;;;;;;;;4926543;29;20072;-84
2022/03/30 13:26:06;;;;;;;23.25;11.00;;;;;;;;;;4923233;29;20060;-82
2022/03/30 13:28:36;;;;;;;28.02;14.30;;;;;;;;;;4921964;29;20045;-82
2022/03/30 13:31:03;;;;;;;26.48;12.85;;;;;;;;;;4924721;29;20518;-82
2022/03/30 13:33:30;;;;;;;29.52;12.15;;;;;;;;;;4918479;29;20400;-82
2022/03/30 13:35:57;;;;;;;25.85;13.30;;;;;;;;;;4920684;29;20052;-84
2022/03/30 13:38:25;;;;;;;19.48;11.48;;;;;;;;;;4924393;29;20079;-84
2022/03/30 13:40:52;;;;;;;18.67;12.10;;;;;;;;;;4922513;29;20107;-82
2022/03/30 13:43:20;;;;;;;29.88;11.93;;;;;;;;;;4921497;29;20052;-82
2022/03/30 13:45:47;;;;;;;20.73;11.23;;;;;;;;;;4923936;29;20052;-82
2022/03/30 13:48:14;;;;;;;24.70;12.75;;;;;;;;;;4921862;29;20055;-83
2022/03/30 13:50:42;;;;;;;22.08;12.07;;;;;;;;;;4922163;29;20558;-84
2022/03/30 13:53:09;;;;;;;27.50;12.68;;;;;;;;;;4923478;29;20092;-86
2022/03/30 13:55:36;;;;;;;26.40;13.23;;;;;;;;;;4921646;29;20052;-83
2022/03/30 13:58:04;;;;;;;31.10;12.68;;;;;;;;;;4923655;29;20044;-84
2022/03/30 14:00:33;;;;;;;27.38;14.25;;;;;;;;;;4925906;29;20056;-84
2022/03/30 14:03:00;;;;;;;29.17;14.15;;;;;;;;;;4924803;29;20139;-84
2022/03/30 14:05:28;;;;;;;31.67;16.13;;;;;;;;;;4921419;29;20084;-83
2022/03/30 14:07:55;;;;;;;30.95;15.00;;;;;;;;;;4921240;29;20115;-83
2022/03/30 14:10:24;;;;;;;27.50;13.98;;;;;;;;;;4930146;29;20123;-82
2022/03/30 14:12:51;;;;;;;29.58;15.85;;;;;;;;;;4940976;29;20095;-85
2022/03/30 14:15:18;;;;;;;44.30;22.38;;;;;;;;;;4943157;29;20128;-84
2022/03/30 14:17:47;;;;;;;37.20;18.45;;;;;;;;;;4941277;29;20051;-83
2022/03/30 14:20:14;;;;;;;32.47;17.95;;;;;;;;;;4942274;29;20044;-82
2022/03/30 14:22:43;;;;;;;37.13;17.73;;;;;;;;;;4941203;29;20091;-82
2022/03/30 14:25:11;;;;;;;39.35;19.88;;;;;;;;;;4940191;29;20055;-83
2022/03/30 14:27:39;;;;;;;35.20;17.20;;;;;;;;;;4941161;29;20499;-82
2022/03/30 14:30:07;;;;;;;38.30;19.50;;;;;;;;;;4938694;29;20043;-81
2022/03/30 14:32:34;;;;;;;33.35;17.52;;;;;;;;;;4940434;29;20107;-81
2022/03/30 14:35:03;;;;;;;33.95;18.92;;;;;;;;;;4947567;29;20079;-83
2022/03/30 14:37:30;;;;;;;34.97;17.75;;;;;;;;;;4955238;29;20071;-82
2022/03/30 14:39:57;;;;;;;40.17;17.73;;;;;;;;;;4956308;29;20114;-81
2022/03/30 14:42:24;;;;;;;41.40;19.50;;;;;;;;;;4958004;29;20073;-81
2022/03/30 14:44:51;;;;;;;41.30;21.67;;;;;;;;;;4958146;29;20047;-84
2022/03/30 14:47:18;;;;;;;37.72;19.38;;;;;;;;;;4956688;29;20047;-81